Time;durP1;ratioP1;P1;durP2;ratioP2;P2;SDS_P1;SDS_P2;PMS_P1;PMS_P2;Temp;Humidity;BMP_temperature;BMP_pressure;BME280_temperature;BME280_humidity;BME280_pressure;Samples;Min_cycle;Max_cycle;Signal;HPM_P1;HPM_P2
2022/01/02 00:01:03;;;;;;;0.80;0.80;;;;;;;;;;4814432;29;32781;-67
2022/01/02 00:03:52;;;;;;;0.90;0.90;;;;;;;;;;4818754;29;34235;-65
2022/01/02 00:06:50;;;;;;;0.77;0.77;;;;;;;;;;4820205;29;32796;-65
2022/01/02 00:09:39;;;;;;;1.10;1.00;;;;;;;;;;4813706;29;32506;-66
2022/01/02 00:12:29;;;;;;;0.70;0.70;;;;;;;;;;4814524;29;32616;-66
2022/01/02 00:15:19;;;;;;;1.05;1.05;;;;;;;;;;4816405;29;33987;-65
2022/01/02 00:18:10;;;;;;;0.90;0.90;;;;;;;;;;4823987;29;33096;-65
2022/01/02 00:21:00;;;;;;;1.42;1.20;;;;;;;;;;4811954;29;32475;-65
2022/01/02 00:23:59;;;;;;;1.00;1.00;;;;;;;;;;4820895;29;32568;-67
2022/01/02 00:26:50;;;;;;;1.10;1.10;;;;;;;;;;4812695;29;32893;-65
2022/01/02 00:29:38;;;;;;;1.08;1.08;;;;;;;;;;4822446;29;34200;-66
2022/01/02 00:32:25;;;;;;;1.00;1.00;;;;;;;;;;4821000;29;32618;-65
2022/01/02 00:35:12;;;;;;;0.90;0.90;;;;;;;;;;4816387;29;32600;-65
2022/01/02 00:37:59;;;;;;;0.80;0.80;;;;;;;;;;4817479;29;32407;-65
2022/01/02 00:40:50;;;;;;;0.82;0.82;;;;;;;;;;4825914;29;34066;-65
2022/01/02 00:43:48;;;;;;;0.80;0.80;;;;;;;;;;4820235;29;32479;-66
2022/01/02 00:46:41;;;;;;;0.80;0.80;;;;;;;;;;4815103;29;32565;-67
2022/01/02 00:49:28;;;;;;;0.80;0.80;;;;;;;;;;4822381;29;32477;-66
2022/01/02 00:52:17;;;;;;;0.75;0.75;;;;;;;;;;4821117;29;32902;-66
2022/01/02 00:55:06;;;;;;;0.98;0.98;;;;;;;;;;4814397;29;34078;-67
2022/01/02 00:57:58;;;;;;;0.60;0.60;;;;;;;;;;4819352;29;32507;-66
2022/01/02 01:00:51;;;;;;;0.80;0.80;;;;;;;;;;4822014;29;32821;-65
2022/01/02 01:03:41;;;;;;;0.80;0.80;;;;;;;;;;4820655;29;32968;-64
2022/01/02 01:06:33;;;;;;;0.82;0.82;;;;;;;;;;4819825;29;35416;-66
2022/01/02 01:09:20;;;;;;;0.70;0.70;;;;;;;;;;4820682;29;32350;-66
2022/01/02 01:12:10;;;;;;;0.80;0.80;;;;;;;;;;4821161;29;32367;-65
2022/01/02 01:15:00;;;;;;;1.00;1.00;;;;;;;;;;4814696;29;32525;-65
2022/01/02 01:17:47;;;;;;;0.98;0.98;;;;;;;;;;4817906;29;32310;-66
2022/01/02 01:20:39;;;;;;;0.82;0.82;;;;;;;;;;4827204;29;34340;-65
2022/01/02 01:23:25;;;;;;;0.98;0.98;;;;;;;;;;4817930;29;32346;-65
2022/01/02 01:26:16;;;;;;;0.73;0.73;;;;;;;;;;4820462;29;32487;-65
2022/01/02 01:29:02;;;;;;;0.95;0.95;;;;;;;;;;4815197;29;32547;-66
2022/01/02 01:31:50;;;;;;;1.20;1.20;;;;;;;;;;4819787;29;33943;-65
2022/01/02 01:34:39;;;;;;;0.95;0.95;;;;;;;;;;4824353;29;32452;-67
2022/01/02 01:37:26;;;;;;;1.10;1.10;;;;;;;;;;4818809;29;32405;-66
2022/01/02 01:40:14;;;;;;;1.08;1.08;;;;;;;;;;4819471;29;32506;-65
2022/01/02 01:43:03;;;;;;;1.17;1.17;;;;;;;;;;4820435;29;32530;-65
2022/01/02 01:45:49;;;;;;;1.42;1.33;;;;;;;;;;4814637;29;34202;-67
2022/01/02 01:48:37;;;;;;;1.70;1.60;;;;;;;;;;4820560;29;32493;-66
2022/01/02 01:51:24;;;;;;;1.55;1.45;;;;;;;;;;4819391;29;32603;-66
2022/01/02 01:54:11;;;;;;;1.67;1.58;;;;;;;;;;4820078;29;32887;-67
2022/01/02 01:56:57;;;;;;;2.15;2.05;;;;;;;;;;4818707;29;34126;-65
2022/01/02 01:59:47;;;;;;;1.48;1.48;;;;;;;;;;4818791;29;32912;-66
2022/01/02 02:02:35;;;;;;;1.83;1.73;;;;;;;;;;4817406;29;32335;-66
2022/01/02 02:05:23;;;;;;;1.92;1.83;;;;;;;;;;4814811;29;32571;-65
2022/01/02 02:08:10;;;;;;;1.88;1.77;;;;;;;;;;4814136;29;32464;-65
2022/01/02 02:10:57;;;;;;;2.03;1.92;;;;;;;;;;4815932;29;34702;-65
2022/01/02 02:13:46;;;;;;;2.13;2.03;;;;;;;;;;4824024;29;32539;-66
2022/01/02 02:16:36;;;;;;;2.15;2.05;;;;;;;;;;4814358;29;32772;-65
2022/01/02 02:19:23;;;;;;;2.13;2.03;;;;;;;;;;4819952;29;32503;-66
2022/01/02 02:22:12;;;;;;;1.90;1.80;;;;;;;;;;4820478;29;34669;-65
2022/01/02 02:24:58;;;;;;;1.98;1.88;;;;;;;;;;4817934;29;33458;-66
2022/01/02 02:27:51;;;;;;;2.20;2.10;;;;;;;;;;4813908;29;32358;-65
2022/01/02 02:30:41;;;;;;;1.80;1.70;;;;;;;;;;4814102;29;32433;-65
2022/01/02 02:33:27;;;;;;;1.90;1.80;;;;;;;;;;4822611;29;32429;-66
2022/01/02 02:36:14;;;;;;;2.03;1.92;;;;;;;;;;4820992;29;35022;-65
2022/01/02 02:39:03;;;;;;;1.90;1.80;;;;;;;;;;4814288;29;32442;-65
2022/01/02 02:41:49;;;;;;;1.67;1.58;;;;;;;;;;4817620;29;33068;-65
2022/01/02 02:44:38;;;;;;;1.90;1.80;;;;;;;;;;4826464;29;32421;-65
2022/01/02 02:50:24;;;;;;;1.85;1.75;;;;;;;;;;4782683;29;33249;-65
2022/01/02 02:53:11;;;;;;;1.70;1.60;;;;;;;;;;4822109;29;32369;-65
2022/01/02 02:55:59;;;;;;;1.83;1.73;;;;;;;;;;4821606;29;32765;-66
2022/01/02 02:58:46;;;;;;;2.05;1.95;;;;;;;;;;4823708;29;32452;-65
2022/01/02 03:01:32;;;;;;;1.60;1.60;;;;;;;;;;4821929;29;34337;-65
2022/01/02 03:04:19;;;;;;;1.60;1.50;;;;;;;;;;4818699;29;32891;-65
2022/01/02 03:07:06;;;;;;;1.65;1.55;;;;;;;;;;4820515;29;32523;-65
2022/01/02 03:09:57;;;;;;;1.90;1.80;;;;;;;;;;4819917;29;32570;-66
2022/01/02 03:12:45;;;;;;;1.88;1.77;;;;;;;;;;4820159;29;34076;-65
2022/01/02 03:15:32;;;;;;;1.90;1.80;;;;;;;;;;4811497;29;32572;-65
2022/01/02 03:18:18;;;;;;;1.85;1.75;;;;;;;;;;4820054;29;32464;-65
2022/01/02 03:21:05;;;;;;;1.63;1.52;;;;;;;;;;4810300;29;32409;-65
2022/01/02 03:23:51;;;;;;;1.58;1.50;;;;;;;;;;4814584;29;32425;-66
2022/01/02 03:26:38;;;;;;;1.60;1.50;;;;;;;;;;4815850;29;32452;-64
2022/01/02 03:29:26;;;;;;;1.90;1.80;;;;;;;;;;4819443;29;32541;-65
2022/01/02 03:32:13;;;;;;;1.98;1.88;;;;;;;;;;4817015;29;32532;-65
2022/01/02 03:34:59;;;;;;;1.83;1.73;;;;;;;;;;4819747;29;32619;-66
2022/01/02 03:37:46;;;;;;;1.70;1.60;;;;;;;;;;4819496;29;34318;-66
2022/01/02 03:40:32;;;;;;;1.77;1.67;;;;;;;;;;4813596;29;32500;-66
2022/01/02 03:43:19;;;;;;;1.70;1.60;;;;;;;;;;4820234;29;32816;-65
2022/01/02 03:46:07;;;;;;;1.75;1.65;;;;;;;;;;4818095;29;32724;-66
2022/01/02 03:48:53;;;;;;;1.60;1.50;;;;;;;;;;4819586;29;32464;-65
2022/01/02 03:51:40;;;;;;;1.55;1.45;;;;;;;;;;4819012;29;32506;-66
2022/01/02 03:54:26;;;;;;;1.40;1.30;;;;;;;;;;4812809;29;34233;-65
2022/01/02 03:57:13;;;;;;;1.10;1.10;;;;;;;;;;4815962;29;32355;-65
2022/01/02 03:59:59;;;;;;;1.17;1.17;;;;;;;;;;4820189;29;32653;-67
2022/01/02 04:02:48;;;;;;;1.17;1.17;;;;;;;;;;4818840;29;34233;-66
2022/01/02 04:05:35;;;;;;;1.35;1.20;;;;;;;;;;4819191;29;32599;-65
2022/01/02 04:08:22;;;;;;;1.00;1.00;;;;;;;;;;4822758;29;32402;-66
2022/01/02 04:11:08;;;;;;;1.15;1.05;;;;;;;;;;4815829;29;32684;-67
2022/01/02 04:13:54;;;;;;;1.58;1.10;;;;;;;;;;4815882;29;32334;-67
2022/01/02 04:16:43;;;;;;;1.00;1.00;;;;;;;;;;4817207;29;32562;-65
2022/01/02 04:19:31;;;;;;;1.00;1.00;;;;;;;;;;4817331;29;32803;-65
2022/01/02 04:22:18;;;;;;;0.80;0.80;;;;;;;;;;4822200;29;32472;-65
2022/01/02 04:25:06;;;;;;;0.80;0.80;;;;;;;;;;4817098;29;32938;-66
2022/01/02 04:27:52;;;;;;;0.60;0.60;;;;;;;;;;4820374;29;34832;-67
2022/01/02 04:30:39;;;;;;;0.70;0.70;;;;;;;;;;4822762;29;32488;-67
2022/01/02 04:33:26;;;;;;;0.80;0.80;;;;;;;;;;4826004;29;32469;-66
2022/01/02 04:36:14;;;;;;;0.80;0.80;;;;;;;;;;4813605;29;32454;-65
2022/01/02 04:39:00;;;;;;;0.68;0.68;;;;;;;;;;4815716;29;32733;-65
2022/01/02 04:41:46;;;;;;;2.05;0.80;;;;;;;;;;4817537;29;32295;-65
2022/01/02 04:44:34;;;;;;;0.73;0.73;;;;;;;;;;4819068;29;32284;-65
2022/01/02 04:47:20;;;;;;;0.60;0.60;;;;;;;;;;4823921;29;32452;-65
2022/01/02 04:50:08;;;;;;;0.63;0.63;;;;;;;;;;4818023;29;32642;-65
2022/01/02 04:52:56;;;;;;;0.60;0.60;;;;;;;;;;4819359;29;35245;-65
2022/01/02 04:55:43;;;;;;;0.60;0.60;;;;;;;;;;4815199;29;32452;-65
2022/01/02 04:58:29;;;;;;;0.60;0.60;;;;;;;;;;4815714;29;32440;-66
2022/01/02 05:01:16;;;;;;;0.77;0.77;;;;;;;;;;4822686;29;32367;-65
2022/01/02 05:04:03;;;;;;;0.47;0.47;;;;;;;;;;4824285;29;32660;-65
2022/01/02 05:06:49;;;;;;;0.50;0.50;;;;;;;;;;4821816;29;33135;-64
2022/01/02 05:09:37;;;;;;;0.85;0.40;;;;;;;;;;4822182;29;32452;-66
2022/01/02 05:12:24;;;;;;;0.60;0.60;;;;;;;;;;4822023;29;32428;-64
2022/01/02 05:15:11;;;;;;;0.30;0.30;;;;;;;;;;4823814;29;32874;-65
2022/01/02 05:17:58;;;;;;;0.40;0.40;;;;;;;;;;4822101;29;34584;-65
2022/01/02 05:20:46;;;;;;;0.30;0.30;;;;;;;;;;4818232;29;32647;-65
2022/01/02 05:23:32;;;;;;;0.30;0.30;;;;;;;;;;4822406;29;32679;-64
2022/01/02 05:26:20;;;;;;;0.57;0.57;;;;;;;;;;4822928;29;32349;-65
2022/01/02 05:29:07;;;;;;;0.50;0.50;;;;;;;;;;4823235;29;32376;-64
2022/01/02 05:31:53;;;;;;;0.40;0.40;;;;;;;;;;4824441;29;33187;-66
2022/01/02 05:34:40;;;;;;;0.50;0.50;;;;;;;;;;4820267;29;32528;-66
2022/01/02 05:37:26;;;;;;;0.60;0.50;;;;;;;;;;4816644;29;32602;-65
2022/01/02 05:40:13;;;;;;;0.30;0.30;;;;;;;;;;4818135;29;32538;-65
2022/01/02 05:43:01;;;;;;;0.40;0.40;;;;;;;;;;4823781;29;34886;-65
2022/01/02 05:45:47;;;;;;;0.35;0.35;;;;;;;;;;4818324;29;32728;-66
2022/01/02 05:48:36;;;;;;;0.30;0.30;;;;;;;;;;4816116;29;32481;-63
2022/01/02 05:51:22;;;;;;;0.30;0.30;;;;;;;;;;4820051;29;32417;-65
2022/01/02 05:54:09;;;;;;;0.55;0.55;;;;;;;;;;4817452;29;34794;-66
2022/01/02 05:56:55;;;;;;;0.40;0.32;;;;;;;;;;4812764;29;32374;-67
2022/01/02 05:59:44;;;;;;;0.38;0.28;;;;;;;;;;4821982;29;32502;-67
2022/01/02 06:02:31;;;;;;;0.30;0.30;;;;;;;;;;4821795;29;32448;-66
2022/01/02 06:05:18;;;;;;;0.40;0.40;;;;;;;;;;4821520;29;32737;-66
2022/01/02 06:08:05;;;;;;;0.30;0.30;;;;;;;;;;4819781;29;34701;-66
2022/01/02 06:10:51;;;;;;;0.30;0.30;;;;;;;;;;4822804;29;32611;-66
2022/01/02 06:13:38;;;;;;;0.40;0.40;;;;;;;;;;4816692;29;32524;-66
2022/01/02 06:16:26;;;;;;;0.30;0.30;;;;;;;;;;4814259;29;32441;-68
2022/01/02 06:19:12;;;;;;;0.40;0.40;;;;;;;;;;4819637;29;35136;-67
2022/01/02 06:22:00;;;;;;;0.32;0.32;;;;;;;;;;4814635;29;32571;-67
2022/01/02 06:24:47;;;;;;;0.30;0.30;;;;;;;;;;4819551;29;32379;-66
2022/01/02 06:27:34;;;;;;;0.40;0.40;;;;;;;;;;4815358;29;32421;-66
2022/01/02 06:30:20;;;;;;;2.25;0.50;;;;;;;;;;4815022;29;32828;-63
2022/01/02 06:33:09;;;;;;;0.50;0.50;;;;;;;;;;4818549;29;35429;-64
2022/01/02 06:35:55;;;;;;;0.40;0.40;;;;;;;;;;4817978;29;32330;-64
2022/01/02 06:38:42;;;;;;;0.52;0.47;;;;;;;;;;4814242;29;32626;-64
2022/01/02 06:41:28;;;;;;;0.55;0.55;;;;;;;;;;4825512;29;32475;-65
2022/01/02 06:44:14;;;;;;;0.77;0.77;;;;;;;;;;4820344;29;36040;-65
2022/01/02 06:47:01;;;;;;;1.15;0.93;;;;;;;;;;4816586;29;32572;-67
2022/01/02 06:49:49;;;;;;;0.90;0.90;;;;;;;;;;4814784;29;32506;-66
2022/01/02 06:52:35;;;;;;;0.85;0.85;;;;;;;;;;4825119;29;32564;-66
2022/01/02 06:55:22;;;;;;;1.23;1.23;;;;;;;;;;4823171;29;32445;-65
2022/01/02 06:58:08;;;;;;;1.63;1.52;;;;;;;;;;4819887;29;35600;-66
2022/01/02 07:00:56;;;;;;;2.95;2.75;;;;;;;;;;4822925;29;32427;-65
2022/01/02 07:03:42;;;;;;;4.13;3.92;;;;;;;;;;4815587;29;32427;-66
2022/01/02 07:06:30;;;;;;;4.18;3.88;;;;;;;;;;4813481;29;32435;-65
2022/01/02 07:09:16;;;;;;;5.70;5.40;;;;;;;;;;4812903;29;34697;-65
2022/01/02 07:12:04;;;;;;;6.00;5.60;;;;;;;;;;4814314;29;32499;-68
2022/01/02 07:14:51;;;;;;;6.13;5.72;;;;;;;;;;4820165;29;32482;-65
2022/01/02 07:17:38;;;;;;;7.03;6.53;;;;;;;;;;4814126;29;32497;-65
2022/01/02 07:20:25;;;;;;;6.70;6.30;;;;;;;;;;4820855;29;32391;-66
2022/01/02 07:23:13;;;;;;;6.57;6.15;;;;;;;;;;4817272;29;34717;-67
2022/01/02 07:25:59;;;;;;;7.25;6.68;;;;;;;;;;4819698;29;32439;-67
2022/01/02 07:28:46;;;;;;;6.82;6.32;;;;;;;;;;4821502;29;32844;-66
2022/01/02 07:31:32;;;;;;;7.00;6.50;;;;;;;;;;4822512;29;32447;-66
2022/01/02 07:34:19;;;;;;;6.47;6.07;;;;;;;;;;4822198;29;35268;-65
2022/01/02 07:37:06;;;;;;;8.25;7.65;;;;;;;;;;4813577;29;32571;-66
2022/01/02 07:39:54;;;;;;;7.47;6.97;;;;;;;;;;4814759;29;32503;-67
2022/01/02 07:42:40;;;;;;;7.90;7.40;;;;;;;;;;4814105;29;32347;-66
2022/01/02 07:45:27;;;;;;;8.85;8.00;;;;;;;;;;4812210;29;32634;-66
2022/01/02 07:48:13;;;;;;;7.85;7.32;;;;;;;;;;4820123;29;34991;-67
2022/01/02 07:50:59;;;;;;;8.07;7.53;;;;;;;;;;4817804;29;32533;-67
2022/01/02 07:53:46;;;;;;;7.88;7.35;;;;;;;;;;4817739;29;32914;-66
2022/01/02 07:56:34;;;;;;;8.38;7.88;;;;;;;;;;4815325;29;32523;-66
2022/01/02 07:59:20;;;;;;;7.78;7.28;;;;;;;;;;4819004;29;34179;-64
2022/01/02 08:02:07;;;;;;;9.05;8.45;;;;;;;;;;4822401;29;32527;-67
2022/01/02 08:04:54;;;;;;;10.30;9.60;;;;;;;;;;4818231;29;32571;-66
2022/01/02 08:07:41;;;;;;;9.52;8.90;;;;;;;;;;4820113;29;32547;-66
2022/01/02 08:10:28;;;;;;;10.48;9.68;;;;;;;;;;4816023;29;32752;-65
2022/01/02 08:13:16;;;;;;;9.75;8.95;;;;;;;;;;4821924;29;35047;-65
2022/01/02 08:16:03;;;;;;;9.77;9.07;;;;;;;;;;4822035;29;32491;-67
2022/01/02 08:18:49;;;;;;;9.48;8.68;;;;;;;;;;4817768;29;32292;-66
2022/01/02 08:21:36;;;;;;;9.43;8.68;;;;;;;;;;4818428;29;32541;-67
2022/01/02 08:24:23;;;;;;;9.43;8.70;;;;;;;;;;4819085;29;35898;-66
2022/01/02 08:27:09;;;;;;;8.98;8.38;;;;;;;;;;4812611;29;32570;-65
2022/01/02 08:29:58;;;;;;;9.32;8.63;;;;;;;;;;4821259;29;32855;-67
2022/01/02 08:32:44;;;;;;;9.70;8.90;;;;;;;;;;4821948;29;32771;-67
2022/01/02 08:35:31;;;;;;;8.40;7.78;;;;;;;;;;4816006;29;32672;-65
2022/01/02 08:38:18;;;;;;;8.15;7.63;;;;;;;;;;4815918;29;34714;-66
2022/01/02 08:41:05;;;;;;;8.02;7.43;;;;;;;;;;4819025;29;32642;-65
2022/01/02 08:43:52;;;;;;;7.57;7.07;;;;;;;;;;4819393;29;32493;-66
2022/01/02 08:46:40;;;;;;;7.13;6.63;;;;;;;;;;4811919;29;32296;-66
2022/01/02 08:49:26;;;;;;;7.18;6.60;;;;;;;;;;4818652;29;34071;-66
2022/01/02 08:52:13;;;;;;;7.07;6.50;;;;;;;;;;4820857;29;32453;-66
2022/01/02 08:55:00;;;;;;;5.85;5.45;;;;;;;;;;4816536;29;32608;-65
2022/01/02 08:57:46;;;;;;;5.82;5.43;;;;;;;;;;4813951;29;32941;-66
2022/01/02 09:00:33;;;;;;;6.15;5.75;;;;;;;;;;4824222;29;32520;-64
2022/01/02 09:03:21;;;;;;;6.15;5.75;;;;;;;;;;4826913;29;35503;-66
2022/01/02 09:06:08;;;;;;;5.32;4.93;;;;;;;;;;4816323;29;32746;-65
2022/01/02 09:08:55;;;;;;;5.40;4.90;;;;;;;;;;4818006;29;32743;-65
2022/01/02 09:11:41;;;;;;;5.18;4.75;;;;;;;;;;4821390;29;32555;-65
2022/01/02 09:14:28;;;;;;;5.18;4.78;;;;;;;;;;4814143;29;34510;-65
2022/01/02 09:17:14;;;;;;;4.07;3.88;;;;;;;;;;4823879;29;32609;-66
2022/01/02 09:20:03;;;;;;;4.18;3.88;;;;;;;;;;4824382;29;32628;-68
2022/01/02 09:22:51;;;;;;;4.15;3.85;;;;;;;;;;4818607;29;32580;-65
2022/01/02 09:25:37;;;;;;;4.13;3.90;;;;;;;;;;4814675;29;32520;-63
2022/01/02 09:28:23;;;;;;;4.57;4.13;;;;;;;;;;4820508;29;35792;-64
2022/01/02 09:31:10;;;;;;;4.25;3.95;;;;;;;;;;4822059;29;32477;-64
2022/01/02 09:33:56;;;;;;;4.38;4.07;;;;;;;;;;4817331;29;32718;-65
2022/01/02 09:36:44;;;;;;;4.45;4.15;;;;;;;;;;4820855;29;32428;-67
2022/01/02 09:39:31;;;;;;;4.63;4.32;;;;;;;;;;4818538;29;34130;-65
2022/01/02 09:42:18;;;;;;;5.07;4.00;;;;;;;;;;4822418;29;32283;-65
2022/01/02 09:45:06;;;;;;;4.30;4.00;;;;;;;;;;4817335;29;32614;-66
2022/01/02 09:47:54;;;;;;;4.35;3.95;;;;;;;;;;4820876;29;32799;-66
2022/01/02 09:50:41;;;;;;;4.25;3.58;;;;;;;;;;4815298;29;32469;-66
2022/01/02 09:53:29;;;;;;;4.63;4.32;;;;;;;;;;4816875;29;34177;-67
2022/01/02 09:55:57;;;;;;;4.20;3.90;;;;;;;;;;4822838;29;32910;-65
2022/01/02 09:58:26;;;;;;;4.43;4.10;;;;;;;;;;4821793;29;32322;-66
2022/01/02 10:00:54;;;;;;;4.60;4.30;;;;;;;;;;4823953;29;32618;-67
2022/01/02 10:03:22;;;;;;;4.55;4.25;;;;;;;;;;4826035;29;34194;-66
2022/01/02 10:05:54;;;;;;;4.25;3.95;;;;;;;;;;4816761;29;32473;-66
2022/01/02 10:08:23;;;;;;;;;;;;;;;;;;4815493;29;32709;-67
2022/01/02 10:11:01;;;;;;;4.10;3.85;;;;;;;;;;4815038;29;32469;-66
2022/01/02 10:13:41;;;;;;;4.60;4.30;;;;;;;;;;4824349;29;32616;-66
2022/01/02 10:16:22;;;;;;;4.32;4.03;;;;;;;;;;4816514;29;35702;-66
2022/01/02 10:18:51;;;;;;;5.05;4.68;;;;;;;;;;4820593;29;32596;-66
2022/01/02 10:21:35;;;;;;;4.88;4.57;;;;;;;;;;4812888;29;32833;-66
2022/01/02 10:24:19;;;;;;;5.00;4.50;;;;;;;;;;4816402;29;32398;-67
2022/01/02 10:27:11;;;;;;;5.53;5.13;;;;;;;;;;4813865;29;34292;-65
2022/01/02 10:29:50;;;;;;;5.28;4.90;;;;;;;;;;4813252;29;32490;-66
2022/01/02 10:32:30;;;;;;;5.80;5.40;;;;;;;;;;4823905;29;32433;-66
2022/01/02 10:35:17;;;;;;;6.07;5.57;;;;;;;;;;4820246;29;32394;-65
2022/01/02 10:37:50;;;;;;;6.43;5.93;;;;;;;;;;4819537;29;32474;-64
2022/01/02 10:40:28;;;;;;;6.35;5.95;;;;;;;;;;4814817;29;35121;-65
2022/01/02 10:42:59;;;;;;;7.28;6.75;;;;;;;;;;4819526;29;32503;-64
2022/01/02 10:45:43;;;;;;;8.20;7.60;;;;;;;;;;4819961;29;32453;-66
2022/01/02 10:48:13;;;;;;;7.85;7.35;;;;;;;;;;4821632;29;32600;-68
2022/01/02 10:50:59;;;;;;;8.10;7.50;;;;;;;;;;4819035;29;35403;-67
2022/01/02 10:53:27;;;;;;;9.00;8.32;;;;;;;;;;4817162;29;32472;-66
2022/01/02 10:55:55;;;;;;;10.07;9.27;;;;;;;;;;4823455;29;32998;-66
2022/01/02 10:58:26;;;;;;;9.98;9.23;;;;;;;;;;4820019;29;32330;-67
2022/01/02 11:00:57;;;;;;;11.43;10.57;;;;;;;;;;4820172;29;32828;-65
2022/01/02 11:03:26;;;;;;;10.87;9.80;;;;;;;;;;4825725;29;33975;-66
2022/01/02 11:06:00;;;;;;;11.35;10.55;;;;;;;;;;4815811;29;32599;-66
2022/01/02 11:08:31;;;;;;;11.05;10.18;;;;;;;;;;4820956;29;32648;-66
2022/01/02 11:11:02;;;;;;;10.52;9.80;;;;;;;;;;4820494;29;32489;-66
2022/01/02 11:13:33;;;;;;;12.05;11.02;;;;;;;;;;4818421;29;34296;-67
2022/01/02 11:16:03;;;;;;;12.00;11.07;;;;;;;;;;4824959;29;32364;-66
2022/01/02 11:18:35;;;;;;;11.15;10.25;;;;;;;;;;4816659;29;32579;-66
2022/01/02 11:21:05;;;;;;;12.07;10.93;;;;;;;;;;4816225;29;32464;-66
2022/01/02 11:23:47;;;;;;;11.20;10.23;;;;;;;;;;4821589;29;32676;-67
2022/01/02 11:26:32;;;;;;;11.05;10.15;;;;;;;;;;4820087;29;34989;-66
2022/01/02 11:29:01;;;;;;;10.75;9.68;;;;;;;;;;4819023;29;33105;-65
2022/01/02 11:31:32;;;;;;;10.45;9.45;;;;;;;;;;4817224;29;32613;-65
2022/01/02 11:34:00;;;;;;;10.80;9.95;;;;;;;;;;4824370;29;32807;-65
2022/01/02 11:36:31;;;;;;;11.38;10.57;;;;;;;;;;4816885;29;35635;-66
2022/01/02 11:39:06;;;;;;;10.13;9.43;;;;;;;;;;4817059;29;32386;-65
2022/01/02 11:41:44;;;;;;;10.68;9.95;;;;;;;;;;4817680;29;32713;-65
2022/01/02 11:44:14;;;;;;;11.23;10.18;;;;;;;;;;4819482;29;32285;-66
2022/01/02 11:46:50;;;;;;;10.50;9.70;;;;;;;;;;4818532;29;32493;-67
2022/01/02 11:49:25;;;;;;;10.15;9.40;;;;;;;;;;4821408;29;34332;-66
2022/01/02 11:52:12;;;;;;;9.82;9.07;;;;;;;;;;4820868;29;32494;-66
2022/01/02 11:54:48;;;;;;;9.88;8.93;;;;;;;;;;4817750;29;32463;-67
2022/01/02 11:57:52;;;;;;;9.38;8.57;;;;;;;;;;4822789;29;32519;-65
2022/01/02 12:03:57;;;;;;;9.80;9.10;;;;;;;;;;4806956;29;34112;-65
2022/01/02 12:07:02;;;;;;;7.60;6.82;;;;;;;;;;4289562;32;32778;-65
2022/01/02 12:09:38;;;;;;;8.05;7.45;;;;;;;;;;4923246;28;32454;-66
2022/01/02 12:12:08;;;;;;;8.43;7.72;;;;;;;;;;4916660;28;34124;-70
2022/01/02 12:14:54;;;;;;;8.10;7.40;;;;;;;;;;4920871;28;32685;-66
2022/01/02 12:17:25;;;;;;;8.52;7.93;;;;;;;;;;4923248;28;32522;-67
2022/01/02 12:20:07;;;;;;;8.63;7.88;;;;;;;;;;4922358;28;32436;-68
2022/01/02 12:22:46;;;;;;;9.60;8.65;;;;;;;;;;4923904;28;32375;-67
2022/01/02 12:25:18;;;;;;;8.57;7.93;;;;;;;;;;4920312;28;35098;-68
2022/01/02 12:27:56;;;;;;;7.85;7.25;;;;;;;;;;4921006;28;32716;-68
2022/01/02 12:30:25;;;;;;;8.73;8.02;;;;;;;;;;4920614;28;32446;-64
2022/01/02 12:32:53;;;;;;;9.45;8.65;;;;;;;;;;4920448;28;32364;-65
2022/01/02 12:35:21;;;;;;;8.40;7.75;;;;;;;;;;4923991;28;35039;-65
2022/01/02 12:38:04;;;;;;;7.72;7.13;;;;;;;;;;4917246;28;32727;-67
2022/01/02 12:40:39;;;;;;;8.95;8.10;;;;;;;;;;4923083;28;32834;-63
2022/01/02 12:43:08;;;;;;;8.75;7.95;;;;;;;;;;4924873;28;32615;-67
2022/01/02 12:45:36;;;;;;;8.25;7.65;;;;;;;;;;4923058;28;32413;-69
2022/01/02 12:48:04;;;;;;;9.02;8.25;;;;;;;;;;4920905;28;33987;-68
2022/01/02 12:50:34;;;;;;;8.82;8.13;;;;;;;;;;4922046;28;32420;-67
2022/01/02 12:53:05;;;;;;;8.88;8.07;;;;;;;;;;4928187;28;32875;-69
2022/01/02 12:55:33;;;;;;;8.30;7.50;;;;;;;;;;4924417;28;32369;-68
2022/01/02 12:58:06;;;;;;;8.45;7.85;;;;;;;;;;4926494;28;35702;-69
2022/01/02 13:00:34;;;;;;;8.68;7.97;;;;;;;;;;4918878;28;32441;-65
2022/01/02 13:03:02;;;;;;;8.55;7.85;;;;;;;;;;4920568;28;32571;-65
2022/01/02 13:05:30;;;;;;;8.18;7.47;;;;;;;;;;4923437;28;32549;-68
2022/01/02 13:08:02;;;;;;;8.52;7.88;;;;;;;;;;4924483;28;32478;-68
2022/01/02 13:10:31;;;;;;;8.52;7.90;;;;;;;;;;4922197;28;35401;-66
2022/01/02 13:12:59;;;;;;;7.38;6.88;;;;;;;;;;4919423;28;32444;-67
2022/01/02 13:15:28;;;;;;;8.82;8.05;;;;;;;;;;4921916;28;33063;-68
2022/01/02 13:17:59;;;;;;;7.68;7.18;;;;;;;;;;4909613;28;32308;-66
2022/01/02 13:20:43;;;;;;;8.15;7.57;;;;;;;;;;4910755;28;34468;-70
2022/01/02 13:23:11;;;;;;;9.63;8.70;;;;;;;;;;4905379;28;32364;-65
2022/01/02 13:25:42;;;;;;;8.57;7.78;;;;;;;;;;4909714;28;32699;-66
2022/01/02 13:28:15;;;;;;;8.48;7.80;;;;;;;;;;4905739;28;32410;-69
2022/01/02 13:30:52;;;;;;;7.90;7.40;;;;;;;;;;4906204;28;32475;-68
2022/01/02 13:33:22;;;;;;;7.97;7.32;;;;;;;;;;4908982;28;34343;-67
2022/01/02 13:35:52;;;;;;;8.45;7.85;;;;;;;;;;4911403;28;32410;-68
2022/01/02 13:38:20;;;;;;;7.72;7.05;;;;;;;;;;4910628;28;32769;-65
2022/01/02 13:40:50;;;;;;;8.90;8.02;;;;;;;;;;4909557;28;32572;-66
2022/01/02 13:43:20;;;;;;;8.02;7.35;;;;;;;;;;4903728;28;34016;-66
2022/01/02 13:45:49;;;;;;;7.90;7.18;;;;;;;;;;4909338;28;32468;-64
2022/01/02 13:48:19;;;;;;;7.85;7.15;;;;;;;;;;4907942;28;32493;-63
2022/01/02 13:50:50;;;;;;;8.55;7.95;;;;;;;;;;4906104;28;32829;-65
2022/01/02 13:53:24;;;;;;;8.75;8.00;;;;;;;;;;4906054;28;33291;-66
2022/01/02 13:55:56;;;;;;;8.68;7.97;;;;;;;;;;4907544;28;34615;-65
2022/01/02 13:58:26;;;;;;;7.68;7.07;;;;;;;;;;4909822;28;32607;-65
2022/01/02 14:00:56;;;;;;;8.95;8.25;;;;;;;;;;4912133;28;32391;-67
2022/01/02 14:03:33;;;;;;;7.85;7.25;;;;;;;;;;4907444;28;32465;-65
2022/01/02 14:06:04;;;;;;;8.20;7.50;;;;;;;;;;4911523;28;34233;-67
2022/01/02 14:08:39;;;;;;;8.05;7.35;;;;;;;;;;4905587;28;32531;-65
2022/01/02 14:11:12;;;;;;;8.00;7.43;;;;;;;;;;4909464;28;34175;-65
2022/01/02 14:14:05;;;;;;;8.15;7.50;;;;;;;;;;4905959;28;32865;-65
2022/01/02 14:17:01;;;;;;;7.60;7.00;;;;;;;;;;4910549;28;32943;-65
2022/01/02 14:19:29;;;;;;;7.47;6.88;;;;;;;;;;4907026;28;34719;-66
2022/01/02 14:22:03;;;;;;;6.88;6.28;;;;;;;;;;4912139;28;32564;-67
2022/01/02 14:24:31;;;;;;;5.70;5.30;;;;;;;;;;4908387;28;32706;-67
2022/01/02 14:27:01;;;;;;;6.25;5.75;;;;;;;;;;4909486;28;32475;-67
2022/01/02 14:29:29;;;;;;;5.63;5.20;;;;;;;;;;4903226;28;34547;-70
2022/01/02 14:31:57;;;;;;;5.80;5.40;;;;;;;;;;4906504;28;32385;-68
2022/01/02 14:34:25;;;;;;;5.38;4.97;;;;;;;;;;4908489;28;32950;-69
2022/01/02 14:36:53;;;;;;;5.20;4.80;;;;;;;;;;4890472;28;32796;-71
2022/01/02 14:39:21;;;;;;;5.25;4.85;;;;;;;;;;4909630;28;32383;-69
2022/01/02 14:41:49;;;;;;;5.30;4.90;;;;;;;;;;4904121;28;60453;-71
2022/01/02 14:44:19;;;;;;;4.97;4.68;;;;;;;;;;4906219;28;32716;-70
2022/01/02 14:46:48;;;;;;;5.10;4.80;;;;;;;;;;4907874;28;32803;-68
2022/01/02 14:49:17;;;;;;;4.80;4.50;;;;;;;;;;4906476;28;32519;-69
2022/01/02 14:51:46;;;;;;;4.88;4.57;;;;;;;;;;4907368;28;34734;-67
2022/01/02 14:54:17;;;;;;;5.15;4.78;;;;;;;;;;4908224;28;33041;-68
2022/01/02 14:56:45;;;;;;;4.93;4.53;;;;;;;;;;4906072;28;33013;-69
2022/01/02 14:59:14;;;;;;;4.90;4.60;;;;;;;;;;4908869;28;32827;-70
2022/01/02 15:01:44;;;;;;;4.40;4.10;;;;;;;;;;4906737;28;32352;-69
2022/01/02 15:04:12;;;;;;;4.20;4.00;;;;;;;;;;4892016;28;36446;-68
2022/01/02 15:06:43;;;;;;;4.40;4.10;;;;;;;;;;4908457;28;32456;-68
2022/01/02 15:09:12;;;;;;;4.85;4.55;;;;;;;;;;4906785;28;32564;-70
2022/01/02 15:11:40;;;;;;;5.32;4.93;;;;;;;;;;4909065;28;32545;-67
2022/01/02 15:14:08;;;;;;;4.88;4.57;;;;;;;;;;4906336;28;35032;-73
2022/01/02 15:16:36;;;;;;;5.00;4.70;;;;;;;;;;4906822;28;32498;-68
2022/01/02 15:19:07;;;;;;;4.45;4.15;;;;;;;;;;4902717;28;32463;-68
2022/01/02 15:21:34;;;;;;;4.85;4.45;;;;;;;;;;4907983;28;32523;-68
2022/01/02 15:24:02;;;;;;;3.85;3.65;;;;;;;;;;4904959;28;32494;-71
2022/01/02 15:26:30;;;;;;;4.28;3.88;;;;;;;;;;4907858;28;34049;-70
2022/01/02 15:28:58;;;;;;;4.05;3.75;;;;;;;;;;4904686;28;32542;-69
2022/01/02 15:31:26;;;;;;;4.18;3.88;;;;;;;;;;4906038;28;32426;-72
2022/01/02 15:33:56;;;;;;;4.00;3.70;;;;;;;;;;4905561;28;32404;-70
2022/01/02 15:36:26;;;;;;;4.53;4.22;;;;;;;;;;4905971;28;35755;-69
2022/01/02 15:38:54;;;;;;;4.40;4.10;;;;;;;;;;4905326;28;32429;-70
2022/01/02 15:41:22;;;;;;;4.47;4.18;;;;;;;;;;4912325;28;32367;-67
2022/01/02 15:43:50;;;;;;;4.47;4.18;;;;;;;;;;4912197;28;32636;-68
2022/01/02 15:46:18;;;;;;;4.03;3.83;;;;;;;;;;4912849;28;32502;-67
2022/01/02 15:48:46;;;;;;;3.83;3.63;;;;;;;;;;4910852;28;33962;-67
2022/01/02 15:51:14;;;;;;;4.03;3.83;;;;;;;;;;4912085;28;32549;-66
2022/01/02 15:53:43;;;;;;;4.10;3.80;;;;;;;;;;4907678;28;32340;-66
2022/01/02 15:56:11;;;;;;;3.72;3.53;;;;;;;;;;4907357;28;32422;-66
2022/01/02 15:58:40;;;;;;;3.95;3.75;;;;;;;;;;4910630;28;35379;-66
2022/01/02 16:01:08;;;;;;;3.83;3.63;;;;;;;;;;4911995;28;32613;-66
2022/01/02 16:03:37;;;;;;;3.75;3.45;;;;;;;;;;4894396;28;33029;-65
2022/01/02 16:06:05;;;;;;;3.85;3.55;;;;;;;;;;4909625;28;32735;-66
2022/01/02 16:08:36;;;;;;;3.75;3.55;;;;;;;;;;4910860;28;32356;-66
2022/01/02 16:11:06;;;;;;;4.38;4.07;;;;;;;;;;4904982;28;34583;-64
2022/01/02 16:13:34;;;;;;;3.53;3.33;;;;;;;;;;4910734;28;32290;-67